Griffin, Indiana
Current Conditions -  °F | °C
As of 1:35 PM on Saturday 20 Dec 2014 (Local Time) from KCUL Reporting Station
Overcast Overcast  
Wind Chill:   Ceiling: 6500
Heat Index:   Visibility: 10mi
Dew Point: -1°   Wind: 3mph
Humidity: 68%   Direction: 70°ENE
Pressure: 30.27"   Gusts: NA
Location:  38.2°N, 87.91°W
Report Text: KCUL 201935Z AUTO 07003KT 10SM OVC065 04/M01 A3027 RMK AO2 T00401014
Loading
Personal Weather Stations






























Interactive Weather Map New forecast layout! Learn more

10-Day Weather Forecast

Advertisements
Track Severe Weather on mobile